Main page
METAR-TAF:

METAR-TAF

Airports :

Shah Amanat International Airport

Chittagong, Bangladesh

latitude: 22-16N, longitude: 091-49E, elevation: 4 m

Current weather observation

The report was made 37 minutes ago, at 11:00 UTC
Wind 4 kt from the West
Temperature 27°C
Humidity 45%
Pressure 1014 hPa
Visibility: 3600 m
haze

METAR: VGEG 231100Z 26004KT 3600 HZ NSC 27/14 Q1014 NOSIG

Time: 17:37 (11:37 UTC)

Forecast

The report was made 6 hours and 37 minutes ago, at 05:00 UTC
Forecast valid from 23 at 06 UTC to 24 at 12 UTC
Wind 10 kt from the West
Visibility: 3800 m
haze
Becoming
from 23 at 14 UTC to 23 at 16 UTC
Wind kt from the North
Visibility: 4000 m
haze
Becoming
from 23 at 22 UTC to 23 at 24 UTC
Wind kt from the North
Visibility: 2500 m
Becoming
from 24 at 03 UTC to 24 at 05 UTC
Wind 6 kt from the West
Visibility: 3500 m
haze

TAF: VGEG 230500Z 2306/2412 26010KT 3800 HZ NSC BECMG 2314/2316 00000KT 4000 HZ NSC BECMG 2322/2324 00000KT 2500 BR/HZ NSC BECMG 2403/2405 27006KT 3500 HZ NSC

Weather observations and forecasts of more than 4000 airports (METAR and TAF reports).

The available stations are represented by yellow and red dots on the map.

Hover mouse over dot to see the name of the station.

Then click to see weather observations and forecasts.

To change the map : click on the green buttons with a black cross to zoom in, on the green button with a dash to zoom out, or on the green arrows for adjacent maps.


METAR-TAF: